Time;durP1;ratioP1;P1;durP2;ratioP2;P2;SDS_P1;SDS_P2;PMS_P1;PMS_P2;Temp;Humidity;BMP_temperature;BMP_pressure;BME280_temperature;BME280_humidity;BME280_pressure;Samples;Min_cycle;Max_cycle;Signal;HPM_P1;HPM_P2
2022/07/23 00:01:50;;;;;;;7.25;2.75;;;;;;;;;;5110019;28;20019;-73
2022/07/23 00:04:16;;;;;;;7.10;2.60;;;;;;;;;;5111291;28;20426;-73
2022/07/23 00:06:42;;;;;;;7.57;2.90;;;;;;;;;;5109459;28;20392;-72
2022/07/23 00:09:08;;;;;;;6.38;3.10;;;;;;;;;;5111098;28;20023;-73
2022/07/23 00:11:34;;;;;;;5.80;3.05;;;;;;;;;;5111576;28;20024;-72
2022/07/23 00:14:36;;;;;;;5.93;2.90;;;;;;;;;;5110888;27;20488;-73
2022/07/23 00:17:02;;;;;;;6.88;3.05;;;;;;;;;;5111646;28;20032;-72
2022/07/23 00:19:29;;;;;;;6.40;3.03;;;;;;;;;;5111350;28;20024;-72
2022/07/23 00:21:55;;;;;;;6.63;2.88;;;;;;;;;;5110884;28;20082;-73
2022/07/23 00:24:21;;;;;;;5.72;3.10;;;;;;;;;;5111168;28;20028;-73
2022/07/23 00:26:47;;;;;;;4.95;2.60;;;;;;;;;;5111010;28;20418;-74
2022/07/23 00:31:58;;;;;;;7.88;3.15;;;;;;;;;;5112109;27;20389;-73
2022/07/23 00:34:24;;;;;;;6.80;3.20;;;;;;;;;;5110974;28;20059;-72
2022/07/23 00:39:00;;;;;;;7.70;3.17;;;;;;;;;;5112003;27;20450;-72
2022/07/23 00:41:26;;;;;;;6.95;3.60;;;;;;;;;;5111043;28;20110;-72
2022/07/23 00:47:35;;;;;;;8.38;3.40;;;;;;;;;;5112220;27;20762;-72
2022/07/23 00:51:25;;;;;;;6.38;3.80;;;;;;;;;;5111897;27;20757;-72
2022/07/23 00:55:59;;;;;;;7.30;3.38;;;;;;;;;;5111165;27;20397;-72
2022/07/23 00:58:48;;;;;;;7.97;3.45;;;;;;;;;;5112182;27;20404;-73
2022/07/23 01:01:14;;;;;;;7.05;3.40;;;;;;;;;;5111333;28;20023;-72
2022/07/23 01:03:40;;;;;;;8.90;3.92;;;;;;;;;;5110945;28;20023;-73
2022/07/23 01:06:06;;;;;;;6.32;3.78;;;;;;;;;;5111380;28;20519;-72
2022/07/23 01:11:28;;;;;;;8.23;3.72;;;;;;;;;;5111480;27;20471;-71
2022/07/23 01:13:55;;;;;;;6.55;3.53;;;;;;;;;;5111346;28;20063;-72
2022/07/23 01:18:25;;;;;;;7.22;3.80;;;;;;;;;;5111934;27;20420;-72
2022/07/23 01:22:45;;;;;;;8.02;4.15;;;;;;;;;;5111480;27;20408;-72
2022/07/23 01:28:39;;;;;;;11.10;4.72;;;;;;;;;;5070940;28;20521;-72
2022/07/23 01:31:05;;;;;;;8.52;3.97;;;;;;;;;;5070413;28;20024;-73
2022/07/23 01:33:31;;;;;;;10.65;3.78;;;;;;;;;;5070957;28;20469;-73
2022/07/23 01:35:58;;;;;;;9.55;4.97;;;;;;;;;;5069442;28;20029;-72
2022/07/23 01:40:16;;;;;;;17.75;7.32;;;;;;;;;;5132209;27;20486;-72
2022/07/23 01:42:42;;;;;;;16.20;8.10;;;;;;;;;;5131839;28;20542;-72
2022/07/23 01:45:09;;;;;;;21.10;6.47;;;;;;;;;;5131378;28;20020;-72
2022/07/23 01:49:13;;;;;;;11.45;6.35;;;;;;;;;;5111762;27;20388;-72
2022/07/23 01:51:59;;;;;;;13.73;6.63;;;;;;;;;;5109742;28;20028;-72
2022/07/23 01:54:46;;;;;;;15.93;7.75;;;;;;;;;;5111556;27;20389;-72
2022/07/23 01:57:12;;;;;;;18.25;8.70;;;;;;;;;;5111566;28;20109;-72
2022/07/23 01:59:39;;;;;;;17.80;7.55;;;;;;;;;;5111001;28;20019;-72
2022/07/23 02:04:36;;;;;;;21.13;7.93;;;;;;;;;;5111616;27;20521;-72
2022/07/23 02:07:02;;;;;;;17.85;8.10;;;;;;;;;;5111054;28;20059;-72
2022/07/23 02:09:28;;;;;;;19.90;9.02;;;;;;;;;;5111501;28;20028;-72
2022/07/23 02:13:25;;;;;;;18.80;7.90;;;;;;;;;;5111251;27;20477;-72
2022/07/23 02:15:52;;;;;;;14.77;6.20;;;;;;;;;;5111315;28;20020;-72
2022/07/23 02:20:05;;;;;;;12.85;4.68;;;;;;;;;;5110921;27;20888;-72
2022/07/23 02:22:31;;;;;;;9.40;4.45;;;;;;;;;;5111387;28;20111;-71
2022/07/23 02:24:57;;;;;;;7.13;3.70;;;;;;;;;;5111497;28;20104;-72
2022/07/23 02:27:38;;;;;;;9.02;3.85;;;;;;;;;;5070860;28;20416;-72
2022/07/23 02:30:05;;;;;;;9.07;3.95;;;;;;;;;;5070821;28;20111;-72
2022/07/23 02:32:31;;;;;;;7.88;3.88;;;;;;;;;;5069486;28;20029;-73
2022/07/23 02:36:57;;;;;;;6.63;3.67;;;;;;;;;;5111503;27;20457;-72
2022/07/23 02:39:23;;;;;;;7.72;3.20;;;;;;;;;;5111375;28;20030;-72
2022/07/23 02:43:36;;;;;;;6.82;3.05;;;;;;;;;;5111589;27;20397;-72
2022/07/23 02:46:02;;;;;;;6.95;3.38;;;;;;;;;;5111425;28;20028;-72
2022/07/23 02:48:28;;;;;;;5.43;3.20;;;;;;;;;;5111049;28;20532;-72
2022/07/23 02:50:56;;;;;;;7.47;3.53;;;;;;;;;;5111289;28;20046;-72
2022/07/23 02:54:56;;;;;;;10.95;4.13;;;;;;;;;;5111502;27;20401;-72
2022/07/23 02:57:23;;;;;;;8.95;3.78;;;;;;;;;;5111374;28;20024;-72
2022/07/23 03:01:01;;;;;;;6.72;3.20;;;;;;;;;;5071033;28;20406;-72
2022/07/23 03:03:27;;;;;;;6.05;3.10;;;;;;;;;;5070425;28;20017;-72
2022/07/23 03:05:53;;;;;;;7.00;3.55;;;;;;;;;;5070757;28;20362;-72
2022/07/23 03:08:20;;;;;;;6.50;3.40;;;;;;;;;;5069466;28;20040;-72
2022/07/23 03:10:46;;;;;;;7.80;3.15;;;;;;;;;;5070354;28;20029;-72
2022/07/23 03:17:09;;;;;;;6.55;3.70;;;;;;;;;;5111135;27;20397;-72
2022/07/23 03:22:07;;;;;;;8.13;3.20;;;;;;;;;;5111834;27;20412;-72
2022/07/23 03:29:17;;;;;;;6.72;3.33;;;;;;;;;;5111486;27;20410;-72
2022/07/23 03:31:43;;;;;;;16.95;4.47;;;;;;;;;;5109715;28;20121;-72
2022/07/23 03:34:09;;;;;;;7.60;3.35;;;;;;;;;;5111305;28;20027;-73
2022/07/23 03:36:35;;;;;;;9.35;3.80;;;;;;;;;;5111486;28;20098;-73
2022/07/23 03:40:33;;;;;;;7.28;3.53;;;;;;;;;;5111773;27;20393;-72
2022/07/23 03:44:38;;;;;;;7.85;4.00;;;;;;;;;;5070751;28;20119;-72
2022/07/23 03:47:05;;;;;;;11.15;5.32;;;;;;;;;;5070805;28;20032;-72
2022/07/23 03:49:31;;;;;;;10.05;4.60;;;;;;;;;;5070701;28;20025;-72
2022/07/23 03:51:58;;;;;;;8.40;4.35;;;;;;;;;;5068973;28;20021;-72
2022/07/23 03:54:24;;;;;;;11.77;4.82;;;;;;;;;;5070639;28;20040;-72
2022/07/23 03:56:50;;;;;;;6.57;3.72;;;;;;;;;;5070603;28;20024;-72
2022/07/23 03:59:16;;;;;;;9.75;4.30;;;;;;;;;;5070132;28;20032;-72
2022/07/23 04:02:26;;;;;;;7.63;3.88;;;;;;;;;;5070896;28;20399;-72
2022/07/23 04:06:52;;;;;;;8.25;3.92;;;;;;;;;;5111056;27;20463;-72
2022/07/23 04:09:18;;;;;;;9.32;3.58;;;;;;;;;;5111344;28;20391;-72
2022/07/23 04:13:26;;;;;;;8.75;3.90;;;;;;;;;;5111272;27;20401;-72
2022/07/23 04:15:52;;;;;;;7.40;3.80;;;;;;;;;;5111344;28;20024;-72
2022/07/23 04:18:18;;;;;;;7.95;4.30;;;;;;;;;;5111288;28;20027;-72
2022/07/23 04:20:45;;;;;;;7.07;4.13;;;;;;;;;;5110953;28;20028;-72
2022/07/23 04:23:12;;;;;;;8.25;3.47;;;;;;;;;;5111198;28;20024;-73
2022/07/23 04:26:00;;;;;;;7.13;3.17;;;;;;;;;;5111212;27;20385;-72
2022/07/23 04:28:26;;;;;;;6.28;3.05;;;;;;;;;;5111383;28;20030;-73
2022/07/23 04:30:52;;;;;;;6.22;3.65;;;;;;;;;;5111532;28;20059;-72
2022/07/23 04:33:19;;;;;;;8.23;3.10;;;;;;;;;;5110970;28;20472;-73
2022/07/23 04:35:45;;;;;;;9.43;3.20;;;;;;;;;;5111267;28;20027;-73
2022/07/23 04:38:11;;;;;;;7.18;2.92;;;;;;;;;;5111185;28;20095;-73
2022/07/23 04:40:38;;;;;;;8.63;3.40;;;;;;;;;;5109537;28;20431;-73
2022/07/23 04:43:04;;;;;;;6.05;3.50;;;;;;;;;;5110031;28;20115;-74
2022/07/23 04:45:31;;;;;;;9.32;3.53;;;;;;;;;;5110948;28;20039;-73
2022/07/23 04:47:57;;;;;;;7.68;4.15;;;;;;;;;;5110651;28;20098;-73
2022/07/23 04:52:20;;;;;;;9.32;4.00;;;;;;;;;;5111673;27;20392;-72
2022/07/23 04:54:46;;;;;;;9.15;3.95;;;;;;;;;;5111341;28;20028;-72
2022/07/23 04:57:12;;;;;;;9.85;4.22;;;;;;;;;;5110066;28;20372;-73
2022/07/23 04:59:38;;;;;;;7.28;4.07;;;;;;;;;;5111252;28;20035;-72
2022/07/23 05:02:05;;;;;;;8.73;4.10;;;;;;;;;;5110832;28;20073;-73
2022/07/23 05:04:31;;;;;;;7.75;3.63;;;;;;;;;;5109816;28;20494;-72
2022/07/23 05:06:57;;;;;;;7.03;3.70;;;;;;;;;;5111108;28;20058;-71
2022/07/23 05:09:24;;;;;;;6.57;3.55;;;;;;;;;;5110622;28;20024;-72
2022/07/23 05:11:50;;;;;;;5.82;3.25;;;;;;;;;;5110918;28;20089;-72
2022/07/23 05:14:16;;;;;;;6.75;3.13;;;;;;;;;;5111006;28;20022;-72
2022/07/23 05:16:42;;;;;;;12.40;3.92;;;;;;;;;;5109230;28;20028;-72
2022/07/23 05:19:08;;;;;;;11.65;3.80;;;;;;;;;;5110894;28;20024;-72
2022/07/23 05:23:39;;;;;;;7.03;3.45;;;;;;;;;;5111010;27;20486;-72
2022/07/23 05:27:05;;;;;;;9.65;3.33;;;;;;;;;;5071598;28;20411;-72
2022/07/23 05:30:02;;;;;;;6.47;2.85;;;;;;;;;;5111339;27;20396;-73
2022/07/23 05:32:28;;;;;;;5.78;2.78;;;;;;;;;;5111334;28;20028;-73
2022/07/23 05:34:54;;;;;;;4.35;2.75;;;;;;;;;;5111302;28;20016;-73
2022/07/23 05:37:20;;;;;;;4.85;3.00;;;;;;;;;;5109600;28;20020;-72
2022/07/23 05:39:46;;;;;;;5.95;2.80;;;;;;;;;;5109921;28;20510;-72
2022/07/23 05:42:12;;;;;;;8.88;3.10;;;;;;;;;;5111184;28;20028;-72
2022/07/23 05:44:39;;;;;;;7.93;3.13;;;;;;;;;;5109334;28;20016;-72
2022/07/23 05:47:05;;;;;;;6.68;2.83;;;;;;;;;;5111140;28;20050;-72
2022/07/23 05:49:31;;;;;;;6.20;3.38;;;;;;;;;;5110897;28;20142;-72
2022/07/23 05:51:57;;;;;;;6.97;3.08;;;;;;;;;;5110592;28;20027;-72
2022/07/23 05:54:23;;;;;;;6.53;3.55;;;;;;;;;;5109570;28;20392;-72
2022/07/23 05:56:50;;;;;;;8.23;3.85;;;;;;;;;;5110910;28;20361;-72
2022/07/23 05:59:16;;;;;;;7.65;2.95;;;;;;;;;;5109105;28;20024;-72
2022/07/23 06:01:42;;;;;;;7.30;3.60;;;;;;;;;;5110718;28;20031;-72
2022/07/23 06:04:08;;;;;;;7.30;3.90;;;;;;;;;;5109413;28;20077;-73
2022/07/23 06:06:35;;;;;;;6.45;3.50;;;;;;;;;;5110301;28;20448;-72
2022/07/23 06:09:01;;;;;;;6.88;3.95;;;;;;;;;;5110624;28;20107;-73
2022/07/23 06:11:27;;;;;;;9.05;4.15;;;;;;;;;;5110159;28;20027;-73
2022/07/23 06:14:10;;;;;;;8.93;3.70;;;;;;;;;;5111502;27;20385;-72
2022/07/23 06:16:36;;;;;;;6.75;3.28;;;;;;;;;;5111425;28;20060;-73
2022/07/23 06:19:02;;;;;;;6.88;3.00;;;;;;;;;;5109574;28;20027;-73
2022/07/23 06:22:54;;;;;;;7.00;3.00;;;;;;;;;;5111671;27;20765;-73
2022/07/23 06:25:44;;;;;;;6.90;3.67;;;;;;;;;;5111065;27;20388;-72
2022/07/23 06:28:10;;;;;;;6.80;3.33;;;;;;;;;;5109958;28;20400;-73
2022/07/23 06:32:01;;;;;;;7.72;3.90;;;;;;;;;;5111613;27;20477;-73
2022/07/23 06:36:41;;;;;;;6.45;3.20;;;;;;;;;;5112043;27;20419;-73
2022/07/23 06:39:07;;;;;;;7.45;3.60;;;;;;;;;;5127166;28;20115;-72
2022/07/23 06:41:33;;;;;;;7.60;3.30;;;;;;;;;;5110886;28;20051;-73
2022/07/23 06:44:00;;;;;;;6.55;3.22;;;;;;;;;;5111362;28;20048;-73
2022/07/23 06:46:26;;;;;;;7.30;3.20;;;;;;;;;;5111332;28;20027;-73
2022/07/23 06:50:48;;;;;;;7.50;3.47;;;;;;;;;;5111340;27;20450;-73
2022/07/23 06:53:15;;;;;;;7.25;3.80;;;;;;;;;;5111576;28;20403;-73
2022/07/23 06:55:41;;;;;;;7.95;3.50;;;;;;;;;;5110844;28;20024;-72
2022/07/23 06:58:09;;;;;;;7.07;3.50;;;;;;;;;;5111443;28;20080;-73
2022/07/23 07:00:36;;;;;;;7.32;3.53;;;;;;;;;;5111160;28;20064;-73
2022/07/23 07:03:02;;;;;;;8.15;4.03;;;;;;;;;;5110720;28;20098;-73
2022/07/23 07:05:28;;;;;;;6.50;3.60;;;;;;;;;;5111214;28;20537;-73
2022/07/23 07:07:55;;;;;;;7.97;3.30;;;;;;;;;;5110655;28;20420;-73
2022/07/23 07:10:21;;;;;;;9.60;3.30;;;;;;;;;;5109683;28;20127;-73
2022/07/23 07:12:47;;;;;;;5.72;3.08;;;;;;;;;;5109640;28;20020;-73
2022/07/23 07:15:13;;;;;;;7.57;3.60;;;;;;;;;;5109190;28;20030;-73
2022/07/23 07:17:40;;;;;;;7.20;3.40;;;;;;;;;;5109646;28;20384;-72
2022/07/23 07:20:06;;;;;;;6.75;3.55;;;;;;;;;;5110805;28;20387;-73
2022/07/23 07:22:32;;;;;;;8.15;3.55;;;;;;;;;;5110569;28;20030;-73
2022/07/23 07:25:43;;;;;;;7.65;3.40;;;;;;;;;;5111785;27;20851;-72
2022/07/23 07:28:09;;;;;;;8.80;3.75;;;;;;;;;;5111268;28;20024;-73
2022/07/23 07:30:35;;;;;;;8.85;3.92;;;;;;;;;;5110932;28;20047;-74
2022/07/23 07:33:02;;;;;;;9.60;4.05;;;;;;;;;;5111280;28;20028;-73
2022/07/23 07:35:28;;;;;;;9.95;3.97;;;;;;;;;;5109859;28;20110;-73
2022/07/23 07:37:54;;;;;;;8.90;3.60;;;;;;;;;;5110785;28;20020;-73
2022/07/23 07:40:21;;;;;;;7.03;3.65;;;;;;;;;;5109820;28;20073;-73
2022/07/23 07:42:47;;;;;;;10.52;3.97;;;;;;;;;;5109766;28;20100;-73
2022/07/23 07:45:15;;;;;;;7.35;4.03;;;;;;;;;;5110594;28;20114;-73
2022/07/23 07:47:41;;;;;;;9.40;4.13;;;;;;;;;;5109729;28;20110;-73
2022/07/23 07:50:07;;;;;;;8.50;3.67;;;;;;;;;;5110483;28;20099;-72
2022/07/23 07:52:36;;;;;;;7.10;3.67;;;;;;;;;;5110883;28;20030;-73
2022/07/23 07:55:02;;;;;;;7.45;4.40;;;;;;;;;;5110840;28;20024;-73
2022/07/23 07:57:28;;;;;;;7.93;3.65;;;;;;;;;;5110413;28;20028;-73
2022/07/23 07:59:54;;;;;;;6.88;3.25;;;;;;;;;;5109545;28;20431;-74
2022/07/23 08:02:20;;;;;;;10.25;4.57;;;;;;;;;;5110672;28;20368;-74
2022/07/23 08:05:26;;;;;;;8.85;3.60;;;;;;;;;;5111240;27;20389;-73
2022/07/23 08:07:52;;;;;;;6.72;3.95;;;;;;;;;;5127176;28;20472;-73
2022/07/23 08:10:18;;;;;;;9.40;3.95;;;;;;;;;;5111232;28;20024;-73
2022/07/23 08:12:45;;;;;;;7.18;3.50;;;;;;;;;;5110903;28;20023;-73
2022/07/23 08:15:12;;;;;;;5.78;3.22;;;;;;;;;;5111134;28;20023;-73
2022/07/23 08:17:38;;;;;;;10.35;3.65;;;;;;;;;;5111232;28;20030;-72
2022/07/23 08:20:06;;;;;;;6.38;3.47;;;;;;;;;;5110628;28;20426;-73
2022/07/23 08:22:52;;;;;;;7.30;3.67;;;;;;;;;;5111059;28;20035;-73
2022/07/23 08:25:26;;;;;;;7.30;3.83;;;;;;;;;;5110570;28;20037;-73
2022/07/23 08:27:52;;;;;;;7.85;3.67;;;;;;;;;;5126749;28;20376;-73
2022/07/23 08:30:19;;;;;;;7.40;3.15;;;;;;;;;;5110918;28;20028;-73
2022/07/23 08:33:04;;;;;;;7.47;3.53;;;;;;;;;;5126267;28;20031;-74
2022/07/23 08:35:33;;;;;;;7.07;3.72;;;;;;;;;;5126629;28;20553;-74
2022/07/23 08:38:00;;;;;;;8.60;3.80;;;;;;;;;;5110718;28;20480;-73
2022/07/23 08:40:26;;;;;;;7.43;4.13;;;;;;;;;;5126056;28;20031;-73
2022/07/23 08:42:53;;;;;;;6.13;3.40;;;;;;;;;;5110949;28;20097;-73
2022/07/23 08:45:20;;;;;;;7.10;3.65;;;;;;;;;;5126420;28;20500;-73
2022/07/23 08:47:49;;;;;;;7.13;3.55;;;;;;;;;;5110120;28;20031;-73
2022/07/23 08:50:15;;;;;;;6.38;3.10;;;;;;;;;;5110782;28;20024;-73
2022/07/23 08:52:41;;;;;;;6.90;3.30;;;;;;;;;;5126253;28;20037;-73
2022/07/23 08:55:08;;;;;;;7.75;3.65;;;;;;;;;;5125629;28;20023;-73
2022/07/23 08:57:35;;;;;;;5.53;3.50;;;;;;;;;;5126227;28;20497;-73
2022/07/23 09:00:01;;;;;;;5.20;3.00;;;;;;;;;;5110345;28;20028;-73
2022/07/23 09:02:27;;;;;;;7.97;3.08;;;;;;;;;;5109859;28;20016;-74
2022/07/23 09:04:53;;;;;;;4.93;3.03;;;;;;;;;;5109945;28;20048;-74
2022/07/23 09:07:19;;;;;;;7.63;3.67;;;;;;;;;;5125876;28;20028;-73
2022/07/23 09:09:46;;;;;;;7.93;3.25;;;;;;;;;;5109738;28;20059;-74
2022/07/23 09:12:12;;;;;;;9.07;3.65;;;;;;;;;;5110056;28;20062;-73
2022/07/23 09:14:43;;;;;;;7.88;3.40;;;;;;;;;;5123373;28;20051;-73
2022/07/23 09:17:10;;;;;;;6.43;3.42;;;;;;;;;;5096523;28;20419;-74
2022/07/23 09:19:36;;;;;;;7.95;3.42;;;;;;;;;;5096365;28;20024;-73
2022/07/23 09:22:22;;;;;;;6.70;3.22;;;;;;;;;;5095955;28;20048;-73
2022/07/23 09:25:03;;;;;;;6.13;2.97;;;;;;;;;;5096248;28;20036;-73
2022/07/23 09:28:07;;;;;;;6.80;3.13;;;;;;;;;;5096195;28;20040;-74
2022/07/23 09:30:34;;;;;;;5.07;3.35;;;;;;;;;;5073425;28;20024;-74
2022/07/23 09:33:07;;;;;;;5.38;2.60;;;;;;;;;;5091912;28;20039;-74
2022/07/23 09:35:50;;;;;;;4.85;2.85;;;;;;;;;;5095747;28;20426;-74
2022/07/23 09:38:17;;;;;;;6.10;2.85;;;;;;;;;;5095928;28;20476;-75
2022/07/23 09:40:43;;;;;;;5.43;2.88;;;;;;;;;;5095948;28;20030;-74
2022/07/23 09:43:10;;;;;;;4.97;3.00;;;;;;;;;;5095589;28;20028;-74
2022/07/23 09:45:39;;;;;;;5.10;2.67;;;;;;;;;;5095975;28;20031;-74
2022/07/23 09:48:12;;;;;;;8.93;3.08;;;;;;;;;;5095801;28;20085;-74
2022/07/23 09:50:38;;;;;;;8.00;3.30;;;;;;;;;;5095404;28;20027;-74
2022/07/23 09:53:05;;;;;;;7.43;3.10;;;;;;;;;;5095669;28;20024;-74
2022/07/23 09:55:36;;;;;;;6.45;3.15;;;;;;;;;;5096086;28;20035;-74
2022/07/23 09:58:03;;;;;;;5.50;3.63;;;;;;;;;;5110989;28;20361;-74
2022/07/23 10:00:29;;;;;;;6.50;3.00;;;;;;;;;;5095579;28;20031;-74
2022/07/23 10:02:56;;;;;;;4.40;2.53;;;;;;;;;;5095426;28;20024;-74
2022/07/23 10:05:22;;;;;;;5.13;2.78;;;;;;;;;;5095208;28;20028;-74
2022/07/23 10:07:49;;;;;;;7.07;3.22;;;;;;;;;;5095584;28;20024;-74
2022/07/23 10:10:15;;;;;;;5.70;3.22;;;;;;;;;;5111134;28;20061;-74
2022/07/23 10:15:22;;;;;;;6.45;3.20;;;;;;;;;;5095500;28;20107;-75
2022/07/23 10:17:49;;;;;;;5.53;3.00;;;;;;;;;;5094856;28;20065;-75
2022/07/23 10:20:15;;;;;;;5.22;3.00;;;;;;;;;;5111029;28;20024;-74
2022/07/23 10:22:45;;;;;;;5.97;2.75;;;;;;;;;;5095189;28;20383;-75
2022/07/23 10:25:19;;;;;;;5.93;2.85;;;;;;;;;;5094723;28;20035;-75
2022/07/23 10:27:48;;;;;;;6.03;2.95;;;;;;;;;;5094473;28;20449;-75
2022/07/23 10:30:14;;;;;;;4.70;2.80;;;;;;;;;;5095018;28;20028;-75
2022/07/23 10:32:59;;;;;;;7.75;3.10;;;;;;;;;;5110185;28;20476;-75
2022/07/23 10:35:38;;;;;;;7.97;3.38;;;;;;;;;;5095124;28;20044;-75
2022/07/23 10:38:25;;;;;;;5.15;2.97;;;;;;;;;;5110552;28;20027;-75
2022/07/23 10:40:55;;;;;;;5.78;2.80;;;;;;;;;;5094510;28;20024;-75
2022/07/23 10:43:22;;;;;;;7.40;2.60;;;;;;;;;;5110616;28;20024;-75
2022/07/23 10:45:48;;;;;;;7.60;2.95;;;;;;;;;;5094760;28;20024;-74
2022/07/23 10:48:21;;;;;;;5.85;2.83;;;;;;;;;;5094546;28;20028;-74
2022/07/23 10:51:24;;;;;;;5.63;2.75;;;;;;;;;;5110368;28;20416;-74
2022/07/23 10:53:50;;;;;;;4.80;3.05;;;;;;;;;;5071887;28;20021;-75
2022/07/23 10:56:16;;;;;;;7.38;3.28;;;;;;;;;;5090286;28;20032;-74
2022/07/23 10:58:46;;;;;;;7.93;2.90;;;;;;;;;;5094507;28;20022;-74
2022/07/23 11:01:31;;;;;;;5.22;2.30;;;;;;;;;;5109736;28;20114;-74
2022/07/23 11:03:58;;;;;;;6.30;2.63;;;;;;;;;;5094368;28;20047;-74
2022/07/23 11:06:24;;;;;;;6.57;2.83;;;;;;;;;;5094269;28;20012;-74
2022/07/23 11:09:10;;;;;;;4.65;2.50;;;;;;;;;;5093946;28;20020;-75
2022/07/23 11:11:37;;;;;;;8.20;3.13;;;;;;;;;;5094393;28;20107;-74
2022/07/23 11:14:03;;;;;;;5.53;2.40;;;;;;;;;;5109413;28;20024;-73
2022/07/23 11:16:29;;;;;;;6.93;2.88;;;;;;;;;;5094182;28;20024;-73
2022/07/23 11:18:57;;;;;;;6.40;2.55;;;;;;;;;;5110048;28;20028;-74
2022/07/23 11:21:23;;;;;;;7.40;2.70;;;;;;;;;;5093683;28;20053;-74
2022/07/23 11:23:59;;;;;;;7.10;3.17;;;;;;;;;;5094009;28;20392;-74
2022/07/23 11:26:37;;;;;;;6.05;2.80;;;;;;;;;;5109707;28;20123;-74
2022/07/23 11:29:22;;;;;;;7.20;3.05;;;;;;;;;;5093595;28;20046;-74
2022/07/23 11:32:04;;;;;;;6.05;2.58;;;;;;;;;;5094131;28;20028;-74
2022/07/23 11:34:31;;;;;;;5.80;2.80;;;;;;;;;;5093904;28;20020;-75
2022/07/23 11:36:57;;;;;;;10.77;4.18;;;;;;;;;;5093562;28;20116;-74
2022/07/23 11:39:25;;;;;;;8.23;3.22;;;;;;;;;;5093572;28;20042;-74
2022/07/23 11:41:52;;;;;;;8.02;3.15;;;;;;;;;;5109461;28;20036;-74
2022/07/23 11:44:31;;;;;;;8.20;2.78;;;;;;;;;;5093274;28;20032;-76
2022/07/23 11:46:57;;;;;;;7.38;2.67;;;;;;;;;;5093705;28;20026;-74
2022/07/23 11:49:24;;;;;;;7.80;3.05;;;;;;;;;;5093694;28;20027;-74
2022/07/23 11:52:06;;;;;;;9.20;3.13;;;;;;;;;;5109364;28;20076;-74
2022/07/23 11:54:33;;;;;;;8.13;2.60;;;;;;;;;;5093641;28;20574;-74
2022/07/23 11:57:00;;;;;;;5.93;2.70;;;;;;;;;;5108879;28;20387;-74
2022/07/23 11:59:31;;;;;;;5.55;2.70;;;;;;;;;;5109260;28;20020;-75
2022/07/23 12:02:02;;;;;;;5.95;2.65;;;;;;;;;;5093518;28;20114;-75
2022/07/23 12:04:41;;;;;;;3.90;2.20;;;;;;;;;;5092954;28;20056;-75
2022/07/23 12:07:26;;;;;;;11.70;3.25;;;;;;;;;;5093809;28;20020;-75
2022/07/23 12:09:52;;;;;;;7.30;2.72;;;;;;;;;;5109209;28;20027;-75
2022/07/23 12:12:19;;;;;;;6.45;2.70;;;;;;;;;;5093025;28;20081;-75
2022/07/23 12:14:59;;;;;;;5.25;2.35;;;;;;;;;;5093446;28;20533;-75
2022/07/23 12:17:29;;;;;;;7.43;3.05;;;;;;;;;;5093219;28;20039;-75
2022/07/23 12:19:56;;;;;;;7.30;2.55;;;;;;;;;;5093365;28;20081;-75
2022/07/23 12:22:24;;;;;;;8.02;3.40;;;;;;;;;;5093591;28;20103;-75
2022/07/23 12:24:54;;;;;;;8.35;2.67;;;;;;;;;;5092953;28;20074;-75
2022/07/23 12:27:23;;;;;;;6.75;2.38;;;;;;;;;;5109071;28;20486;-76
2022/07/23 12:29:49;;;;;;;5.03;2.67;;;;;;;;;;5093246;28;20099;-76
2022/07/23 12:32:19;;;;;;;6.22;3.83;;;;;;;;;;5108646;28;20101;-76
2022/07/23 12:34:45;;;;;;;8.82;2.72;;;;;;;;;;5093296;28;20020;-76
2022/07/23 12:37:27;;;;;;;7.15;2.83;;;;;;;;;;5093190;28;20031;-75
2022/07/23 12:39:53;;;;;;;5.68;2.45;;;;;;;;;;5092891;28;20034;-76
2022/07/23 12:42:20;;;;;;;5.18;2.30;;;;;;;;;;5093192;28;20055;-75
2022/07/23 12:45:06;;;;;;;5.50;2.28;;;;;;;;;;5108757;28;20488;-76
2022/07/23 12:47:51;;;;;;;5.88;2.70;;;;;;;;;;5092751;28;20033;-75
2022/07/23 12:50:36;;;;;;;6.40;2.60;;;;;;;;;;5094456;28;20512;-75
2022/07/23 12:53:29;;;;;;;6.38;2.35;;;;;;;;;;5096666;28;20472;-75
2022/07/23 12:55:59;;;;;;;8.80;3.13;;;;;;;;;;5095692;28;20051;-75
2022/07/23 12:58:26;;;;;;;8.30;3.40;;;;;;;;;;5097348;28;20114;-75
2022/07/23 13:00:53;;;;;;;4.82;2.40;;;;;;;;;;5096394;28;20024;-75
2022/07/23 13:03:38;;;;;;;8.88;3.13;;;;;;;;;;5096475;28;20059;-75
2022/07/23 13:06:05;;;;;;;5.80;2.30;;;;;;;;;;5096847;28;20487;-74
2022/07/23 13:08:32;;;;;;;5.65;2.45;;;;;;;;;;5096258;28;20384;-75
2022/07/23 13:10:59;;;;;;;8.32;2.47;;;;;;;;;;5112235;28;20024;-75
2022/07/23 13:13:26;;;;;;;9.05;3.17;;;;;;;;;;5096616;28;20092;-75
2022/07/23 13:15:53;;;;;;;5.05;2.25;;;;;;;;;;5096104;28;20093;-75
2022/07/23 13:18:19;;;;;;;10.90;2.75;;;;;;;;;;5096387;28;20100;-75
2022/07/23 13:20:46;;;;;;;6.00;2.20;;;;;;;;;;5111750;28;20028;-75
2022/07/23 13:23:13;;;;;;;7.70;2.65;;;;;;;;;;5111940;28;20070;-75
2022/07/23 13:25:39;;;;;;;4.43;2.10;;;;;;;;;;5096510;28;20503;-76
2022/07/23 13:28:06;;;;;;;6.10;2.42;;;;;;;;;;5095779;28;20020;-76
2022/07/23 13:30:32;;;;;;;5.30;2.13;;;;;;;;;;5096252;28;20057;-76
2022/07/23 13:32:58;;;;;;;6.47;2.67;;;;;;;;;;5096223;28;20026;-77
2022/07/23 13:35:25;;;;;;;5.65;2.17;;;;;;;;;;5111453;28;20031;-76
2022/07/23 13:37:51;;;;;;;8.05;2.55;;;;;;;;;;5111750;28;20020;-75
2022/07/23 13:40:17;;;;;;;9.48;2.78;;;;;;;;;;5096081;28;20024;-76
2022/07/23 13:42:43;;;;;;;6.20;2.47;;;;;;;;;;5095458;28;20154;-76
2022/07/23 13:45:09;;;;;;;6.95;2.92;;;;;;;;;;5096066;28;20078;-76
2022/07/23 13:47:35;;;;;;;4.60;2.35;;;;;;;;;;5095944;28;20020;-76
2022/07/23 13:50:02;;;;;;;10.68;2.63;;;;;;;;;;5095366;28;20092;-76
2022/07/23 13:52:28;;;;;;;6.18;2.90;;;;;;;;;;5095751;28;20031;-76
2022/07/23 13:54:54;;;;;;;9.02;3.20;;;;;;;;;;5095752;28;20024;-75
2022/07/23 13:57:20;;;;;;;8.05;2.58;;;;;;;;;;5095304;28;20371;-76
2022/07/23 13:59:46;;;;;;;6.15;2.47;;;;;;;;;;5111458;28;20115;-75
2022/07/23 14:02:14;;;;;;;6.35;2.78;;;;;;;;;;5095571;28;20442;-75
2022/07/23 14:04:40;;;;;;;8.15;2.80;;;;;;;;;;5095038;28;20059;-74
2022/07/23 14:07:06;;;;;;;8.43;2.95;;;;;;;;;;5111246;28;20028;-75
2022/07/23 14:09:33;;;;;;;5.05;2.35;;;;;;;;;;5095358;28;20031;-75
2022/07/23 14:12:00;;;;;;;9.57;2.70;;;;;;;;;;5094895;28;20459;-76
2022/07/23 14:14:26;;;;;;;6.40;2.67;;;;;;;;;;5095347;28;20024;-76
2022/07/23 14:16:52;;;;;;;7.05;2.70;;;;;;;;;;5095264;28;20031;-76
2022/07/23 14:19:18;;;;;;;7.60;2.78;;;;;;;;;;5095455;28;20073;-77
2022/07/23 14:21:44;;;;;;;8.40;3.00;;;;;;;;;;5095514;28;20028;-77
2022/07/23 14:24:10;;;;;;;7.93;3.05;;;;;;;;;;5095062;28;20039;-77
2022/07/23 14:26:36;;;;;;;6.63;2.53;;;;;;;;;;5095599;28;20020;-75
2022/07/23 14:29:03;;;;;;;8.00;2.88;;;;;;;;;;5111140;28;20021;-76
2022/07/23 14:31:29;;;;;;;7.30;3.33;;;;;;;;;;5110495;28;20526;-76
2022/07/23 14:33:55;;;;;;;7.95;2.80;;;;;;;;;;5095001;28;20024;-76
2022/07/23 14:36:21;;;;;;;8.05;2.63;;;;;;;;;;5094971;28;20435;-75
2022/07/23 14:38:47;;;;;;;8.60;3.28;;;;;;;;;;5094485;28;20024;-75
2022/07/23 14:41:13;;;;;;;6.03;2.72;;;;;;;;;;5094993;28;20026;-74
2022/07/23 14:43:40;;;;;;;4.45;1.98;;;;;;;;;;5110446;28;20044;-76
2022/07/23 14:46:07;;;;;;;4.90;2.10;;;;;;;;;;5094311;28;20031;-75
2022/07/23 14:48:33;;;;;;;7.07;2.50;;;;;;;;;;5094675;28;20024;-74
2022/07/23 14:50:59;;;;;;;9.77;2.95;;;;;;;;;;5094608;28;20518;-74
2022/07/23 14:53:25;;;;;;;7.07;2.25;;;;;;;;;;5094171;28;20058;-74
2022/07/23 14:55:52;;;;;;;5.03;2.00;;;;;;;;;;5094559;28;20035;-75
2022/07/23 14:58:18;;;;;;;6.25;2.38;;;;;;;;;;5094529;28;20073;-74
2022/07/23 15:00:44;;;;;;;8.88;2.10;;;;;;;;;;5094262;28;20024;-75
2022/07/23 15:03:10;;;;;;;4.32;2.10;;;;;;;;;;5094169;28;20020;-75
2022/07/23 15:05:36;;;;;;;6.85;2.42;;;;;;;;;;5094619;28;20028;-75
2022/07/23 15:08:03;;;;;;;3.88;1.80;;;;;;;;;;5094021;28;20091;-75
2022/07/23 15:10:29;;;;;;;8.77;2.38;;;;;;;;;;5094261;28;20166;-75
2022/07/23 15:12:55;;;;;;;5.90;2.60;;;;;;;;;;5093736;28;20028;-75
2022/07/23 15:15:21;;;;;;;5.18;2.33;;;;;;;;;;5093727;28;20091;-75
2022/07/23 15:17:47;;;;;;;4.50;2.08;;;;;;;;;;5094581;28;20097;-75
2022/07/23 15:20:13;;;;;;;5.30;2.33;;;;;;;;;;5093759;28;20027;-75
2022/07/23 15:22:40;;;;;;;4.32;2.15;;;;;;;;;;5094336;28;20085;-75
2022/07/23 15:25:06;;;;;;;6.78;2.67;;;;;;;;;;5094048;28;20032;-75
2022/07/23 15:27:32;;;;;;;5.85;2.45;;;;;;;;;;5093734;28;20464;-75
2022/07/23 15:29:58;;;;;;;7.32;2.40;;;;;;;;;;5094030;28;20028;-75
2022/07/23 15:32:26;;;;;;;5.95;2.42;;;;;;;;;;5094400;28;20024;-75
2022/07/23 15:34:52;;;;;;;7.57;2.63;;;;;;;;;;5094009;28;20365;-76
2022/07/23 15:37:18;;;;;;;6.90;2.72;;;;;;;;;;5094013;28;20027;-75
2022/07/23 15:39:44;;;;;;;6.28;2.47;;;;;;;;;;5093856;28;20024;-75
2022/07/23 15:42:11;;;;;;;5.32;2.40;;;;;;;;;;5093769;28;20024;-75
2022/07/23 15:44:37;;;;;;;4.72;2.10;;;;;;;;;;5109523;28;20028;-75
2022/07/23 15:47:03;;;;;;;7.50;2.33;;;;;;;;;;5093798;28;20024;-75
2022/07/23 15:49:29;;;;;;;7.15;2.47;;;;;;;;;;5093296;28;20480;-74
2022/07/23 15:51:55;;;;;;;7.30;2.72;;;;;;;;;;5093808;28;20024;-75
2022/07/23 15:54:22;;;;;;;7.43;3.25;;;;;;;;;;5109404;28;20025;-77
2022/07/23 15:56:48;;;;;;;7.00;2.45;;;;;;;;;;5093239;28;20142;-75
2022/07/23 15:59:14;;;;;;;5.88;2.15;;;;;;;;;;5093688;28;20032;-74
2022/07/23 16:01:41;;;;;;;6.10;2.20;;;;;;;;;;5093492;28;20027;-74
2022/07/23 16:04:08;;;;;;;5.95;2.47;;;;;;;;;;5093028;28;20127;-75